DLH47T EDDM-LPPT
Flight info
| Callsign | DLH47T |
|---|---|
| Flight time | 2h 49m |
| Altitude | 33000 |
| Route | MERSI Y100 UMTEX/N0363F230 Y100 TRA/N0434F330 DCT LUTIX DCT BENOT DCT NEMOS DCT NINTU DCT MEBAK DCT REPSI DCT LERGA DCT MINSO DCT NARAK DCT AGN DCT LATEK/N0437F350 DCT PPN DCT MIRPO DCT DGO DCT NEA DCT ARDID DCT INBOM |
| Aircraft | A21N/M-SDE2E3FGHIRWXY/LB1 |
Departure
| Time | 2026-05-07 09:45 |
|---|---|
| Airport | Munich Airport (EDDM) |
Arrival
| Time | 2026-05-07 12:35 |
|---|---|
| Airport | Lisbon Humberto Delgado Airport (LPPT) |
| Time | Latitude | Longitude | Altitude | Speed | Heading |
|---|---|---|---|---|---|
| 2026-05-07 09:12 | 48.35510 | 11.80246 | 1491 ft | 0 kts | 83° |
| 2026-05-07 09:34 | 48.35509 | 11.80235 | 1466 ft | 4 kts | 83° |
| 2026-05-07 09:34 | 48.35506 | 11.80194 | 1458 ft | 4 kts | 83° |
| 2026-05-07 09:34 | 48.35504 | 11.80163 | 1478 ft | 4 kts | 93° |
| 2026-05-07 09:35 | 48.35511 | 11.80129 | 1480 ft | 4 kts | 141° |
| 2026-05-07 09:35 | 48.35532 | 11.80119 | 1483 ft | 4 kts | 173° |
| 2026-05-07 09:35 | 48.35546 | 11.80117 | 1484 ft | 0 kts | 173° |
| 2026-05-07 09:38 | 48.35537 | 11.80118 | 1486 ft | 3 kts | 174° |
| 2026-05-07 09:38 | 48.35524 | 11.80120 | 1483 ft | 1 kts | 173° |
| 2026-05-07 09:38 | 48.35505 | 11.80122 | 1485 ft | 5 kts | 174° |
| 2026-05-07 09:38 | 48.35460 | 11.80130 | 1479 ft | 8 kts | 173° |
| 2026-05-07 09:39 | 48.35391 | 11.80151 | 1489 ft | 12 kts | 167° |
| 2026-05-07 09:39 | 48.35306 | 11.80171 | 1491 ft | 13 kts | 173° |
| 2026-05-07 09:39 | 48.35216 | 11.80185 | 1488 ft | 7 kts | 174° |
| 2026-05-07 09:39 | 48.35165 | 11.80186 | 1485 ft | 8 kts | 200° |
| 2026-05-07 09:40 | 48.35133 | 11.80109 | 1486 ft | 10 kts | 261° |
| 2026-05-07 09:40 | 48.35124 | 11.79997 | 1481 ft | 12 kts | 263° |
| 2026-05-07 09:40 | 48.35114 | 11.79870 | 1487 ft | 13 kts | 263° |
| 2026-05-07 09:40 | 48.35104 | 11.79745 | 1491 ft | 11 kts | 263° |
| 2026-05-07 09:41 | 48.35061 | 11.79661 | 1488 ft | 12 kts | 185° |
| 2026-05-07 09:41 | 48.34973 | 11.79673 | 1479 ft | 14 kts | 175° |
| 2026-05-07 09:41 | 48.34874 | 11.79690 | 1478 ft | 15 kts | 173° |
| 2026-05-07 09:41 | 48.34815 | 11.79727 | 1491 ft | 9 kts | 120° |
| 2026-05-07 09:42 | 48.34812 | 11.79831 | 1481 ft | 11 kts | 83° |
| 2026-05-07 09:42 | 48.34821 | 11.79953 | 1491 ft | 13 kts | 83° |
| 2026-05-07 09:42 | 48.34832 | 11.80091 | 1491 ft | 14 kts | 84° |
| 2026-05-07 09:42 | 48.34789 | 11.80221 | 1486 ft | 15 kts | 147° |
| 2026-05-07 09:43 | 48.34679 | 11.80248 | 1480 ft | 17 kts | 174° |
| 2026-05-07 09:43 | 48.34587 | 11.80270 | 1477 ft | 4 kts | 173° |
| 2026-05-07 09:43 | 48.34561 | 11.80274 | 1483 ft | 4 kts | 175° |
| 2026-05-07 09:43 | 48.34526 | 11.80278 | 1478 ft | 6 kts | 176° |
| 2026-05-07 09:44 | 48.34479 | 11.80273 | 1484 ft | 8 kts | 203° |
| 2026-05-07 09:44 | 48.34465 | 11.80251 | 1483 ft | 0 kts | 274° |
| 2026-05-07 09:44 | 48.34465 | 11.80244 | 1486 ft | 2 kts | 266° |
| 2026-05-07 09:44 | 48.34462 | 11.80195 | 1484 ft | 15 kts | 263° |
| 2026-05-07 09:45 | 48.34417 | 11.79647 | 1491 ft | 90 kts | 263° |
| 2026-05-07 09:45 | 48.34322 | 11.78396 | 1484 ft | 145 kts | 264° |
| 2026-05-07 09:45 | 48.34187 | 11.76741 | 1851 ft | 157 kts | 264° |
| 2026-05-07 09:45 | 48.34075 | 11.75120 | 2579 ft | 159 kts | 265° |
| 2026-05-07 09:46 | 48.33961 | 11.73435 | 3191 ft | 167 kts | 263° |
| 2026-05-07 09:46 | 48.33814 | 11.71641 | 3761 ft | 178 kts | 264° |
| 2026-05-07 09:46 | 48.33676 | 11.69751 | 4400 ft | 188 kts | 263° |
| 2026-05-07 09:46 | 48.33517 | 11.67759 | 4980 ft | 201 kts | 263° |
| 2026-05-07 09:47 | 48.33352 | 11.65593 | 5502 ft | 220 kts | 263° |
| 2026-05-07 09:47 | 48.33181 | 11.63253 | 6200 ft | 232 kts | 263° |
| 2026-05-07 09:47 | 48.33006 | 11.60767 | 6813 ft | 246 kts | 263° |
| 2026-05-07 09:47 | 48.32813 | 11.58171 | 7531 ft | 255 kts | 263° |
| 2026-05-07 09:48 | 48.32607 | 11.55490 | 8309 ft | 260 kts | 263° |
| 2026-05-07 09:48 | 48.32406 | 11.52768 | 9146 ft | 264 kts | 263° |
| 2026-05-07 09:48 | 48.32213 | 11.50005 | 9965 ft | 268 kts | 263° |
| 2026-05-07 09:48 | 48.32012 | 11.47201 | 10675 ft | 273 kts | 263° |
| 2026-05-07 09:49 | 48.31780 | 11.44340 | 11422 ft | 276 kts | 262° |
| 2026-05-07 09:49 | 48.31559 | 11.41500 | 12103 ft | 284 kts | 263° |
| 2026-05-07 09:49 | 48.31336 | 11.38464 | 12444 ft | 302 kts | 263° |
| 2026-05-07 09:49 | 48.31108 | 11.35234 | 12871 ft | 316 kts | 263° |
| 2026-05-07 09:50 | 48.30715 | 11.31985 | 13664 ft | 318 kts | 250° |
| 2026-05-07 09:50 | 48.29617 | 11.29081 | 14278 ft | 323 kts | 232° |
| 2026-05-07 09:50 | 48.27919 | 11.26859 | 14918 ft | 332 kts | 210° |
| 2026-05-07 09:50 | 48.25749 | 11.25557 | 15624 ft | 334 kts | 201° |
| 2026-05-07 09:51 | 48.23573 | 11.24336 | 16408 ft | 336 kts | 204° |
| 2026-05-07 09:51 | 48.21395 | 11.22992 | 17083 ft | 341 kts | 205° |
| 2026-05-07 09:51 | 48.19224 | 11.21619 | 17743 ft | 344 kts | 205° |
| 2026-05-07 09:51 | 48.17013 | 11.20207 | 18383 ft | 348 kts | 205° |
| 2026-05-07 09:52 | 48.14775 | 11.18782 | 18946 ft | 351 kts | 205° |
| 2026-05-07 09:52 | 48.12563 | 11.17214 | 19497 ft | 353 kts | 211° |
| 2026-05-07 09:52 | 48.10437 | 11.15336 | 20031 ft | 356 kts | 213° |
| 2026-05-07 09:52 | 48.08314 | 11.13402 | 20570 ft | 359 kts | 213° |
| 2026-05-07 09:53 | 48.06171 | 11.11449 | 21088 ft | 362 kts | 213° |
| 2026-05-07 09:53 | 48.04008 | 11.09494 | 21587 ft | 365 kts | 213° |
| 2026-05-07 09:53 | 48.01821 | 11.07525 | 22105 ft | 368 kts | 213° |
| 2026-05-07 09:53 | 47.99756 | 11.05262 | 22599 ft | 369 kts | 225° |
| 2026-05-07 09:54 | 47.98163 | 11.02344 | 23072 ft | 368 kts | 240° |
| 2026-05-07 09:54 | 47.97144 | 10.98844 | 23483 ft | 371 kts | 253° |
| 2026-05-07 09:54 | 47.96470 | 10.95094 | 23791 ft | 377 kts | 256° |
| 2026-05-07 09:54 | 47.95833 | 10.91282 | 24138 ft | 380 kts | 256° |
| 2026-05-07 09:55 | 47.95181 | 10.87468 | 24596 ft | 380 kts | 256° |
| 2026-05-07 09:55 | 47.94510 | 10.83657 | 25060 ft | 380 kts | 255° |
| 2026-05-07 09:55 | 47.93823 | 10.79833 | 25487 ft | 383 kts | 255° |
| 2026-05-07 09:55 | 47.93137 | 10.76042 | 25943 ft | 384 kts | 255° |
| 2026-05-07 09:56 | 47.92442 | 10.72200 | 26390 ft | 386 kts | 255° |
| 2026-05-07 09:56 | 47.92007 | 10.69802 | 26591 ft | 389 kts | 255° |
| 2026-05-07 09:56 | 47.91291 | 10.65875 | 26917 ft | 394 kts | 255° |
| 2026-05-07 09:56 | 47.90571 | 10.61932 | 27364 ft | 395 kts | 255° |
| 2026-05-07 09:57 | 47.89851 | 10.57994 | 27928 ft | 393 kts | 256° |
| 2026-05-07 09:57 | 47.89128 | 10.54040 | 28298 ft | 396 kts | 256° |
| 2026-05-07 09:57 | 47.88398 | 10.50058 | 28595 ft | 401 kts | 256° |
| 2026-05-07 09:57 | 47.87660 | 10.46051 | 28932 ft | 404 kts | 256° |
| 2026-05-07 09:58 | 47.86907 | 10.41982 | 29219 ft | 408 kts | 256° |
| 2026-05-07 09:58 | 47.86153 | 10.37908 | 29502 ft | 412 kts | 256° |
| 2026-05-07 09:58 | 47.85436 | 10.33798 | 29779 ft | 415 kts | 260° |
| 2026-05-07 09:58 | 47.85074 | 10.29531 | 30093 ft | 416 kts | 267° |
| 2026-05-07 09:59 | 47.84893 | 10.25224 | 30420 ft | 417 kts | 268° |
| 2026-05-07 09:59 | 47.84733 | 10.20923 | 30744 ft | 417 kts | 268° |
| 2026-05-07 09:59 | 47.84545 | 10.16583 | 30945 ft | 422 kts | 265° |
| 2026-05-07 09:59 | 47.84209 | 10.12243 | 31222 ft | 423 kts | 264° |
| 2026-05-07 10:00 | 47.83835 | 10.07908 | 31559 ft | 423 kts | 263° |
| 2026-05-07 10:00 | 47.83465 | 10.03617 | 31826 ft | 424 kts | 263° |
| 2026-05-07 10:00 | 47.83095 | 9.99268 | 32188 ft | 422 kts | 263° |
| 2026-05-07 10:00 | 47.82730 | 9.94951 | 32637 ft | 419 kts | 263° |
| 2026-05-07 10:01 | 47.82367 | 9.90660 | 32939 ft | 419 kts | 262° |
| 2026-05-07 10:01 | 47.82003 | 9.86355 | 33088 ft | 421 kts | 262° |
| 2026-05-07 10:01 | 47.81634 | 9.82035 | 33073 ft | 420 kts | 262° |
| 2026-05-07 10:02 | 47.80894 | 9.73405 | 33062 ft | 419 kts | 262° |
| 2026-05-07 10:02 | 47.80145 | 9.64801 | 33051 ft | 420 kts | 262° |
| 2026-05-07 10:03 | 47.79393 | 9.56175 | 33048 ft | 421 kts | 262° |
| 2026-05-07 10:03 | 47.78631 | 9.47532 | 33052 ft | 421 kts | 262° |
| 2026-05-07 10:04 | 47.77867 | 9.38976 | 33050 ft | 421 kts | 262° |
| 2026-05-07 10:04 | 47.77089 | 9.30333 | 33051 ft | 421 kts | 262° |
| 2026-05-07 10:05 | 47.76313 | 9.21729 | 33048 ft | 420 kts | 262° |
| 2026-05-07 10:05 | 47.75525 | 9.13115 | 33041 ft | 420 kts | 262° |
| 2026-05-07 10:06 | 47.74737 | 9.04579 | 33043 ft | 420 kts | 262° |
| 2026-05-07 10:06 | 47.73951 | 8.96107 | 33039 ft | 420 kts | 262° |
| 2026-05-07 10:07 | 47.73154 | 8.87521 | 33041 ft | 420 kts | 262° |
| 2026-05-07 10:07 | 47.72342 | 8.78932 | 33041 ft | 420 kts | 262° |
| 2026-05-07 10:08 | 47.71531 | 8.70417 | 33043 ft | 419 kts | 262° |
| 2026-05-07 10:08 | 47.70709 | 8.61845 | 33050 ft | 419 kts | 262° |
| 2026-05-07 10:09 | 47.69877 | 8.53277 | 33046 ft | 419 kts | 262° |
| 2026-05-07 10:09 | 47.68794 | 8.44806 | 33037 ft | 419 kts | 251° |
| 2026-05-07 10:09 | 47.67585 | 8.40879 | 33045 ft | 422 kts | 239° |
| 2026-05-07 10:10 | 47.65923 | 8.37235 | 33071 ft | 430 kts | 235° |
| 2026-05-07 10:10 | 47.62383 | 8.30081 | 33056 ft | 434 kts | 234° |
| 2026-05-07 10:11 | 47.58840 | 8.22836 | 33048 ft | 434 kts | 235° |
| 2026-05-07 10:11 | 47.55307 | 8.15580 | 33050 ft | 434 kts | 235° |
| 2026-05-07 10:12 | 47.51774 | 8.08338 | 33047 ft | 433 kts | 234° |
| 2026-05-07 10:12 | 47.48243 | 8.01116 | 33061 ft | 433 kts | 234° |
| 2026-05-07 10:13 | 47.44728 | 7.93954 | 33062 ft | 433 kts | 234° |
| 2026-05-07 10:13 | 47.41194 | 7.86771 | 33042 ft | 432 kts | 234° |
| 2026-05-07 10:14 | 47.37676 | 7.79641 | 33039 ft | 432 kts | 234° |
| 2026-05-07 10:14 | 47.34141 | 7.72484 | 33044 ft | 432 kts | 234° |
| 2026-05-07 10:15 | 47.30599 | 7.65337 | 33038 ft | 432 kts | 234° |
| 2026-05-07 10:15 | 47.27072 | 7.58243 | 33039 ft | 432 kts | 234° |
| 2026-05-07 10:16 | 47.23518 | 7.51107 | 33054 ft | 431 kts | 234° |
| 2026-05-07 10:16 | 47.19967 | 7.43995 | 33056 ft | 431 kts | 234° |
| 2026-05-07 10:17 | 47.16403 | 7.36918 | 33052 ft | 431 kts | 232° |
| 2026-05-07 10:17 | 47.12708 | 7.30058 | 33042 ft | 431 kts | 232° |
| 2026-05-07 10:18 | 47.08972 | 7.23183 | 33055 ft | 431 kts | 232° |
| 2026-05-07 10:18 | 47.05233 | 7.16324 | 33036 ft | 431 kts | 232° |
| 2026-05-07 10:19 | 47.01493 | 7.09471 | 33025 ft | 430 kts | 231° |
| 2026-05-07 10:19 | 46.97772 | 7.02662 | 33015 ft | 430 kts | 232° |
| 2026-05-07 10:20 | 46.94026 | 6.95829 | 33014 ft | 430 kts | 231° |
| 2026-05-07 10:20 | 46.90274 | 6.89019 | 33014 ft | 430 kts | 231° |
| 2026-05-07 10:21 | 46.86518 | 6.82212 | 33036 ft | 430 kts | 231° |
| 2026-05-07 10:21 | 46.82763 | 6.75420 | 33022 ft | 430 kts | 231° |
| 2026-05-07 10:22 | 46.79025 | 6.68685 | 33020 ft | 430 kts | 231° |
| 2026-05-07 10:22 | 46.75255 | 6.61918 | 33024 ft | 429 kts | 231° |
| 2026-05-07 10:23 | 46.71491 | 6.55161 | 33023 ft | 429 kts | 231° |
| 2026-05-07 10:23 | 46.67727 | 6.48431 | 33020 ft | 428 kts | 231° |
| 2026-05-07 10:24 | 46.63989 | 6.41754 | 33179 ft | 429 kts | 231° |
| 2026-05-07 10:24 | 46.62102 | 6.38389 | 33496 ft | 428 kts | 231° |
| 2026-05-07 10:24 | 46.60219 | 6.35041 | 33807 ft | 427 kts | 231° |
| 2026-05-07 10:24 | 46.58347 | 6.31715 | 34061 ft | 426 kts | 231° |
| 2026-05-07 10:25 | 46.56468 | 6.28379 | 34267 ft | 426 kts | 231° |
| 2026-05-07 10:25 | 46.54585 | 6.25040 | 34453 ft | 427 kts | 231° |
| 2026-05-07 10:25 | 46.52698 | 6.21709 | 34638 ft | 427 kts | 231° |
| 2026-05-07 10:25 | 46.50809 | 6.18370 | 34834 ft | 427 kts | 231° |
| 2026-05-07 10:26 | 46.48955 | 6.15090 | 34996 ft | 428 kts | 231° |
| 2026-05-07 10:26 | 46.45169 | 6.08412 | 35044 ft | 428 kts | 231° |
| 2026-05-07 10:27 | 46.41389 | 6.01769 | 35029 ft | 427 kts | 231° |
| 2026-05-07 10:27 | 46.37604 | 5.95132 | 35025 ft | 427 kts | 231° |
| 2026-05-07 10:28 | 46.33843 | 5.88545 | 35022 ft | 427 kts | 231° |
| 2026-05-07 10:28 | 46.30058 | 5.81936 | 35023 ft | 427 kts | 231° |
| 2026-05-07 10:29 | 46.26271 | 5.75341 | 35021 ft | 427 kts | 231° |
| 2026-05-07 10:29 | 46.22474 | 5.68749 | 35020 ft | 426 kts | 231° |
| 2026-05-07 10:30 | 46.16783 | 5.58882 | 35015 ft | 426 kts | 231° |
| 2026-05-07 10:30 | 46.13199 | 5.52160 | 35022 ft | 425 kts | 236° |
| 2026-05-07 10:31 | 46.09847 | 5.45151 | 35025 ft | 425 kts | 236° |
| 2026-05-07 10:31 | 46.06484 | 5.38141 | 35026 ft | 425 kts | 236° |
| 2026-05-07 10:32 | 46.03122 | 5.31152 | 35027 ft | 425 kts | 236° |
| 2026-05-07 10:32 | 45.99751 | 5.24177 | 35031 ft | 425 kts | 236° |
| 2026-05-07 10:33 | 45.96400 | 5.17257 | 35037 ft | 424 kts | 236° |
| 2026-05-07 10:33 | 45.93030 | 5.10306 | 35042 ft | 424 kts | 236° |
| 2026-05-07 10:34 | 45.89653 | 5.03361 | 35044 ft | 424 kts | 236° |
| 2026-05-07 10:34 | 45.86270 | 4.96425 | 35053 ft | 424 kts | 236° |
| 2026-05-07 10:35 | 45.82913 | 4.89548 | 35043 ft | 424 kts | 236° |
| 2026-05-07 10:35 | 45.79526 | 4.82635 | 35050 ft | 423 kts | 235° |
| 2026-05-07 10:36 | 45.76139 | 4.75737 | 35049 ft | 423 kts | 235° |
| 2026-05-07 10:36 | 45.72747 | 4.68852 | 35049 ft | 423 kts | 235° |
| 2026-05-07 10:37 | 45.69355 | 4.61980 | 35047 ft | 423 kts | 235° |
| 2026-05-07 10:37 | 45.65983 | 4.55161 | 35043 ft | 423 kts | 235° |
| 2026-05-07 10:38 | 45.62584 | 4.48306 | 35049 ft | 423 kts | 235° |
| 2026-05-07 10:38 | 45.59184 | 4.41454 | 35051 ft | 423 kts | 235° |
| 2026-05-07 10:39 | 45.55776 | 4.34609 | 35048 ft | 423 kts | 234° |
| 2026-05-07 10:39 | 45.52369 | 4.27787 | 35048 ft | 423 kts | 234° |
| 2026-05-07 10:40 | 45.48972 | 4.21007 | 35053 ft | 423 kts | 234° |
| 2026-05-07 10:40 | 45.45547 | 4.14186 | 35047 ft | 423 kts | 234° |
| 2026-05-07 10:41 | 45.42118 | 4.07371 | 35043 ft | 423 kts | 234° |
| 2026-05-07 10:41 | 45.38705 | 4.00611 | 35037 ft | 424 kts | 234° |
| 2026-05-07 10:42 | 45.35259 | 3.93797 | 35018 ft | 424 kts | 234° |
| 2026-05-07 10:42 | 45.31812 | 3.86999 | 35021 ft | 424 kts | 234° |
| 2026-05-07 10:43 | 45.28940 | 3.81349 | 35021 ft | 425 kts | 234° |
| 2026-05-07 10:43 | 45.25489 | 3.74546 | 35017 ft | 425 kts | 235° |
| 2026-05-07 10:44 | 45.22106 | 3.67675 | 35022 ft | 425 kts | 235° |
| 2026-05-07 10:44 | 45.18717 | 3.60800 | 35015 ft | 425 kts | 235° |
| 2026-05-07 10:45 | 45.15352 | 3.53979 | 35014 ft | 425 kts | 235° |
| 2026-05-07 10:45 | 45.11952 | 3.47118 | 35017 ft | 425 kts | 235° |
| 2026-05-07 10:46 | 45.08547 | 3.40257 | 35017 ft | 426 kts | 235° |
| 2026-05-07 10:46 | 45.05135 | 3.33404 | 35014 ft | 426 kts | 235° |
| 2026-05-07 10:47 | 45.01723 | 3.26562 | 35011 ft | 426 kts | 235° |
| 2026-05-07 10:47 | 44.98298 | 3.19712 | 35011 ft | 426 kts | 235° |
| 2026-05-07 10:48 | 44.94896 | 3.12921 | 35013 ft | 426 kts | 235° |
| 2026-05-07 10:48 | 44.91467 | 3.06097 | 35012 ft | 426 kts | 235° |
| 2026-05-07 10:49 | 44.88028 | 2.99277 | 35010 ft | 427 kts | 235° |
| 2026-05-07 10:49 | 44.84609 | 2.92430 | 35012 ft | 427 kts | 237° |
| 2026-05-07 10:50 | 44.81374 | 2.85418 | 35021 ft | 427 kts | 237° |
| 2026-05-07 10:50 | 44.78162 | 2.78446 | 35023 ft | 427 kts | 237° |
| 2026-05-07 10:51 | 44.74922 | 2.71425 | 35026 ft | 428 kts | 237° |
| 2026-05-07 10:51 | 44.71676 | 2.64418 | 35015 ft | 428 kts | 237° |
| 2026-05-07 10:52 | 44.68429 | 2.57421 | 35030 ft | 428 kts | 237° |
| 2026-05-07 10:52 | 44.65190 | 2.50474 | 35030 ft | 428 kts | 237° |
| 2026-05-07 10:53 | 44.61929 | 2.43487 | 35024 ft | 428 kts | 237° |
| 2026-05-07 10:53 | 44.58665 | 2.36516 | 35014 ft | 428 kts | 237° |
| 2026-05-07 10:54 | 44.55397 | 2.29546 | 35024 ft | 428 kts | 237° |
| 2026-05-07 10:54 | 44.52128 | 2.22582 | 35028 ft | 428 kts | 237° |
| 2026-05-07 10:55 | 44.48872 | 2.15670 | 35020 ft | 428 kts | 237° |
| 2026-05-07 10:55 | 44.45596 | 2.08729 | 35023 ft | 427 kts | 237° |
| 2026-05-07 10:56 | 44.42314 | 2.01787 | 35026 ft | 428 kts | 237° |
| 2026-05-07 10:56 | 44.39023 | 1.94847 | 35021 ft | 428 kts | 237° |
| 2026-05-07 10:57 | 44.35755 | 1.87969 | 35022 ft | 428 kts | 237° |
| 2026-05-07 10:57 | 44.32456 | 1.81045 | 35027 ft | 428 kts | 237° |
| 2026-05-07 10:58 | 44.29163 | 1.74112 | 35020 ft | 428 kts | 238° |
| 2026-05-07 10:58 | 44.25949 | 1.67111 | 35017 ft | 428 kts | 238° |
| 2026-05-07 10:59 | 44.22736 | 1.60118 | 35022 ft | 429 kts | 238° |
| 2026-05-07 10:59 | 44.19528 | 1.53160 | 35020 ft | 429 kts | 238° |
| 2026-05-07 11:00 | 44.16292 | 1.46162 | 35026 ft | 430 kts | 238° |
| 2026-05-07 11:00 | 44.13058 | 1.39170 | 35024 ft | 430 kts | 238° |
| 2026-05-07 11:01 | 44.09808 | 1.32178 | 35024 ft | 430 kts | 237° |
| 2026-05-07 11:01 | 44.06557 | 1.25207 | 35021 ft | 430 kts | 238° |
| 2026-05-07 11:02 | 44.03328 | 1.18263 | 35013 ft | 430 kts | 238° |
| 2026-05-07 11:02 | 44.00069 | 1.11315 | 35013 ft | 429 kts | 238° |
| 2026-05-07 11:03 | 43.96808 | 1.04373 | 35010 ft | 430 kts | 238° |
| 2026-05-07 11:03 | 43.93544 | 0.97420 | 35009 ft | 429 kts | 238° |
| 2026-05-07 11:04 | 43.90284 | 0.90472 | 34999 ft | 429 kts | 238° |
| 2026-05-07 11:04 | 43.86670 | 0.83968 | 35006 ft | 430 kts | 229° |
| 2026-05-07 11:05 | 43.82654 | 0.77807 | 35004 ft | 430 kts | 229° |
| 2026-05-07 11:05 | 43.78651 | 0.71650 | 35008 ft | 430 kts | 229° |
| 2026-05-07 11:06 | 43.74665 | 0.65488 | 35003 ft | 430 kts | 230° |
| 2026-05-07 11:06 | 43.70700 | 0.59369 | 35010 ft | 430 kts | 229° |
| 2026-05-07 11:07 | 43.66706 | 0.53235 | 34993 ft | 430 kts | 229° |
| 2026-05-07 11:07 | 43.62701 | 0.47100 | 35001 ft | 429 kts | 229° |
| 2026-05-07 11:08 | 43.58705 | 0.40990 | 34997 ft | 429 kts | 229° |
| 2026-05-07 11:08 | 43.54726 | 0.34922 | 34996 ft | 429 kts | 229° |
| 2026-05-07 11:09 | 43.50726 | 0.28834 | 34996 ft | 429 kts | 229° |
| 2026-05-07 11:09 | 43.46724 | 0.22762 | 34997 ft | 428 kts | 229° |
| 2026-05-07 11:10 | 43.42713 | 0.16691 | 34996 ft | 428 kts | 229° |
| 2026-05-07 11:10 | 43.38715 | 0.10642 | 34993 ft | 427 kts | 229° |
| 2026-05-07 11:11 | 43.34742 | 0.04658 | 34986 ft | 427 kts | 229° |
| 2026-05-07 11:11 | 43.30744 | -0.01364 | 34994 ft | 426 kts | 229° |
| 2026-05-07 11:12 | 43.26757 | -0.07370 | 34987 ft | 426 kts | 229° |
| 2026-05-07 11:12 | 43.22761 | -0.13370 | 34997 ft | 426 kts | 229° |
| 2026-05-07 11:13 | 43.18786 | -0.19302 | 34991 ft | 425 kts | 229° |
| 2026-05-07 11:13 | 43.14777 | -0.25267 | 34989 ft | 425 kts | 229° |
| 2026-05-07 11:14 | 43.10770 | -0.31231 | 34986 ft | 425 kts | 229° |
| 2026-05-07 11:14 | 43.06768 | -0.37182 | 34978 ft | 425 kts | 229° |
| 2026-05-07 11:15 | 43.02790 | -0.43097 | 34978 ft | 425 kts | 229° |
| 2026-05-07 11:15 | 42.98790 | -0.49021 | 34973 ft | 424 kts | 229° |
| 2026-05-07 11:16 | 42.94791 | -0.54948 | 34961 ft | 424 kts | 229° |
| 2026-05-07 11:16 | 42.90789 | -0.60856 | 34945 ft | 424 kts | 229° |
| 2026-05-07 11:17 | 42.87528 | -0.67404 | 34956 ft | 421 kts | 248° |
| 2026-05-07 11:17 | 42.86189 | -0.75151 | 34970 ft | 422 kts | 259° |
| 2026-05-07 11:18 | 42.84980 | -0.82966 | 34956 ft | 421 kts | 250° |
| 2026-05-07 11:18 | 42.82894 | -0.90430 | 34961 ft | 422 kts | 249° |
| 2026-05-07 11:19 | 42.80790 | -0.97884 | 34956 ft | 422 kts | 249° |
| 2026-05-07 11:19 | 42.78734 | -1.05305 | 34958 ft | 422 kts | 249° |
| 2026-05-07 11:20 | 42.76666 | -1.12778 | 34957 ft | 422 kts | 249° |
| 2026-05-07 11:20 | 42.74578 | -1.20256 | 34956 ft | 422 kts | 249° |
| 2026-05-07 11:21 | 42.72487 | -1.27701 | 34955 ft | 422 kts | 249° |
| 2026-05-07 11:21 | 42.70393 | -1.35125 | 34957 ft | 422 kts | 249° |
| 2026-05-07 11:22 | 42.68288 | -1.42588 | 34962 ft | 423 kts | 249° |
| 2026-05-07 11:22 | 42.66176 | -1.50047 | 34963 ft | 423 kts | 248° |
| 2026-05-07 11:23 | 42.64053 | -1.57504 | 34970 ft | 424 kts | 249° |
| 2026-05-07 11:23 | 42.61929 | -1.64965 | 34961 ft | 424 kts | 248° |
| 2026-05-07 11:24 | 42.59806 | -1.72375 | 34962 ft | 424 kts | 248° |
| 2026-05-07 11:24 | 42.57669 | -1.79842 | 34960 ft | 424 kts | 248° |
| 2026-05-07 11:25 | 42.55526 | -1.87299 | 34957 ft | 424 kts | 248° |
| 2026-05-07 11:25 | 42.53377 | -1.94760 | 34966 ft | 424 kts | 248° |
| 2026-05-07 11:26 | 42.51240 | -2.02157 | 34967 ft | 425 kts | 248° |
| 2026-05-07 11:26 | 42.49074 | -2.09598 | 34978 ft | 425 kts | 248° |
| 2026-05-07 11:27 | 42.46887 | -2.17034 | 34988 ft | 425 kts | 248° |
| 2026-05-07 11:27 | 42.44712 | -2.24470 | 34993 ft | 425 kts | 248° |
| 2026-05-07 11:28 | 42.42558 | -2.31863 | 34991 ft | 425 kts | 248° |
| 2026-05-07 11:28 | 42.40391 | -2.39296 | 34992 ft | 425 kts | 248° |
| 2026-05-07 11:29 | 42.38212 | -2.46714 | 34984 ft | 425 kts | 248° |
| 2026-05-07 11:29 | 42.36011 | -2.54130 | 34973 ft | 424 kts | 248° |
| 2026-05-07 11:30 | 42.33853 | -2.61489 | 34955 ft | 424 kts | 248° |
| 2026-05-07 11:30 | 42.31662 | -2.68895 | 34945 ft | 424 kts | 248° |
| 2026-05-07 11:31 | 42.29465 | -2.76278 | 34937 ft | 424 kts | 248° |
| 2026-05-07 11:31 | 42.27260 | -2.83671 | 34935 ft | 424 kts | 248° |
| 2026-05-07 11:32 | 42.23958 | -2.94683 | 34930 ft | 424 kts | 247° |
| 2026-05-07 11:33 | 42.21741 | -3.02060 | 34929 ft | 424 kts | 247° |
| 2026-05-07 11:33 | 42.19513 | -3.09436 | 34917 ft | 424 kts | 247° |
| 2026-05-07 11:34 | 42.17297 | -3.16756 | 34925 ft | 425 kts | 247° |
| 2026-05-07 11:34 | 42.15068 | -3.24125 | 34923 ft | 425 kts | 247° |
| 2026-05-07 11:35 | 42.12828 | -3.31499 | 34920 ft | 425 kts | 247° |
| 2026-05-07 11:35 | 42.10586 | -3.38868 | 34920 ft | 426 kts | 247° |
| 2026-05-07 11:36 | 42.08333 | -3.46240 | 34919 ft | 426 kts | 247° |
| 2026-05-07 11:36 | 42.06089 | -3.53556 | 34918 ft | 426 kts | 246° |
| 2026-05-07 11:37 | 42.03822 | -3.60930 | 34917 ft | 427 kts | 246° |
| 2026-05-07 11:37 | 42.01549 | -3.68313 | 34912 ft | 427 kts | 246° |
| 2026-05-07 11:38 | 41.99273 | -3.75684 | 34910 ft | 428 kts | 246° |
| 2026-05-07 11:38 | 41.96984 | -3.83070 | 34900 ft | 430 kts | 245° |
| 2026-05-07 11:39 | 41.94685 | -3.90464 | 34915 ft | 432 kts | 245° |
| 2026-05-07 11:39 | 41.92364 | -3.97912 | 34911 ft | 433 kts | 245° |
| 2026-05-07 11:40 | 41.90032 | -4.05372 | 34910 ft | 433 kts | 245° |
| 2026-05-07 11:40 | 41.87711 | -4.12778 | 34911 ft | 434 kts | 245° |
| 2026-05-07 11:41 | 41.85364 | -4.20234 | 34907 ft | 434 kts | 245° |
| 2026-05-07 11:41 | 41.83017 | -4.27692 | 34911 ft | 434 kts | 245° |
| 2026-05-07 11:42 | 41.80661 | -4.35149 | 34906 ft | 434 kts | 245° |
| 2026-05-07 11:42 | 41.78294 | -4.42599 | 34910 ft | 435 kts | 245° |
| 2026-05-07 11:43 | 41.75941 | -4.50014 | 34907 ft | 435 kts | 245° |
| 2026-05-07 11:43 | 41.73568 | -4.57464 | 34906 ft | 435 kts | 245° |
| 2026-05-07 11:44 | 41.71186 | -4.64916 | 34908 ft | 436 kts | 246° |
| 2026-05-07 11:44 | 41.68796 | -4.72370 | 34909 ft | 436 kts | 246° |
| 2026-05-07 11:45 | 41.66402 | -4.79824 | 34902 ft | 436 kts | 246° |
| 2026-05-07 11:45 | 41.64017 | -4.87226 | 34907 ft | 437 kts | 246° |
| 2026-05-07 11:46 | 41.61604 | -4.94679 | 34905 ft | 437 kts | 246° |
| 2026-05-07 11:46 | 41.59185 | -5.02134 | 34908 ft | 437 kts | 246° |
| 2026-05-07 11:47 | 41.56769 | -5.09588 | 34907 ft | 437 kts | 246° |
| 2026-05-07 11:47 | 41.54358 | -5.16981 | 34905 ft | 438 kts | 246° |
| 2026-05-07 11:48 | 41.51926 | -5.24425 | 34899 ft | 437 kts | 247° |
| 2026-05-07 11:48 | 41.49474 | -5.31857 | 34902 ft | 437 kts | 247° |
| 2026-05-07 11:49 | 41.47046 | -5.39290 | 34897 ft | 438 kts | 247° |
| 2026-05-07 11:49 | 41.44620 | -5.46685 | 34900 ft | 438 kts | 247° |
| 2026-05-07 11:50 | 41.42169 | -5.54104 | 34893 ft | 438 kts | 247° |
| 2026-05-07 11:50 | 41.39713 | -5.61529 | 34890 ft | 438 kts | 248° |
| 2026-05-07 11:51 | 41.37261 | -5.68896 | 34892 ft | 438 kts | 248° |
| 2026-05-07 11:51 | 41.34792 | -5.76303 | 34893 ft | 438 kts | 248° |
| 2026-05-07 11:52 | 41.32327 | -5.83706 | 34894 ft | 438 kts | 248° |
| 2026-05-07 11:52 | 41.29853 | -5.91102 | 34894 ft | 438 kts | 248° |
| 2026-05-07 11:53 | 41.27373 | -5.98496 | 34886 ft | 438 kts | 248° |
| 2026-05-07 11:53 | 41.24906 | -6.05828 | 34884 ft | 438 kts | 248° |
| 2026-05-07 11:54 | 41.22419 | -6.13197 | 34883 ft | 437 kts | 248° |
| 2026-05-07 11:54 | 41.19923 | -6.20557 | 34894 ft | 437 kts | 249° |
| 2026-05-07 11:55 | 41.17369 | -6.27872 | 34887 ft | 438 kts | 244° |
| 2026-05-07 11:55 | 41.13861 | -6.34467 | 34889 ft | 442 kts | 237° |
| 2026-05-07 11:56 | 41.10162 | -6.40982 | 34877 ft | 442 kts | 237° |
| 2026-05-07 11:56 | 41.06479 | -6.47497 | 34887 ft | 441 kts | 237° |
| 2026-05-07 11:57 | 41.02802 | -6.53990 | 34888 ft | 441 kts | 237° |
| 2026-05-07 11:57 | 40.99137 | -6.60432 | 34876 ft | 440 kts | 237° |
| 2026-05-07 11:58 | 40.95468 | -6.66901 | 34871 ft | 440 kts | 237° |
| 2026-05-07 11:58 | 40.91791 | -6.73366 | 34875 ft | 439 kts | 237° |
| 2026-05-07 11:59 | 40.88156 | -6.79759 | 34864 ft | 438 kts | 237° |
| 2026-05-07 11:59 | 40.84488 | -6.86165 | 34865 ft | 437 kts | 237° |
| 2026-05-07 12:00 | 40.80829 | -6.92561 | 34864 ft | 436 kts | 237° |
| 2026-05-07 12:00 | 40.77182 | -6.98930 | 34866 ft | 435 kts | 238° |
| 2026-05-07 12:01 | 40.73532 | -7.05281 | 34871 ft | 434 kts | 238° |
| 2026-05-07 12:01 | 40.69909 | -7.11576 | 34863 ft | 433 kts | 238° |
| 2026-05-07 12:02 | 40.66268 | -7.17891 | 34865 ft | 432 kts | 238° |
| 2026-05-07 12:02 | 40.62630 | -7.24178 | 34867 ft | 431 kts | 238° |
| 2026-05-07 12:03 | 40.59022 | -7.30402 | 34869 ft | 430 kts | 238° |
| 2026-05-07 12:03 | 40.55389 | -7.36658 | 34888 ft | 429 kts | 238° |
| 2026-05-07 12:04 | 40.51768 | -7.42886 | 34874 ft | 428 kts | 238° |
| 2026-05-07 12:04 | 40.48146 | -7.49093 | 34864 ft | 427 kts | 239° |
| 2026-05-07 12:05 | 40.44535 | -7.55271 | 34877 ft | 426 kts | 239° |
| 2026-05-07 12:05 | 40.40957 | -7.61387 | 34884 ft | 425 kts | 239° |
| 2026-05-07 12:06 | 40.37347 | -7.67542 | 34875 ft | 425 kts | 239° |
| 2026-05-07 12:06 | 40.33743 | -7.73673 | 34876 ft | 424 kts | 239° |
| 2026-05-07 12:07 | 40.30145 | -7.79778 | 34868 ft | 422 kts | 239° |
| 2026-05-07 12:07 | 40.26581 | -7.85819 | 34876 ft | 422 kts | 239° |
| 2026-05-07 12:08 | 40.22998 | -7.91886 | 34874 ft | 421 kts | 239° |
| 2026-05-07 12:08 | 40.19418 | -7.97930 | 34871 ft | 420 kts | 239° |
| 2026-05-07 12:09 | 40.15842 | -8.03943 | 34618 ft | 415 kts | 239° |
| 2026-05-07 12:09 | 40.14073 | -8.06917 | 34240 ft | 415 kts | 240° |
| 2026-05-07 12:09 | 40.12330 | -8.09847 | 33645 ft | 413 kts | 240° |
| 2026-05-07 12:09 | 40.10574 | -8.12799 | 32949 ft | 412 kts | 240° |
| 2026-05-07 12:10 | 40.08817 | -8.15751 | 32270 ft | 411 kts | 239° |
| 2026-05-07 12:10 | 40.07061 | -8.18692 | 31573 ft | 410 kts | 239° |
| 2026-05-07 12:10 | 40.05307 | -8.21629 | 30881 ft | 410 kts | 239° |
| 2026-05-07 12:10 | 40.03547 | -8.24566 | 30216 ft | 410 kts | 238° |
| 2026-05-07 12:11 | 40.01577 | -8.27297 | 29467 ft | 420 kts | 227° |
| 2026-05-07 12:11 | 39.99127 | -8.29470 | 28709 ft | 434 kts | 213° |
| 2026-05-07 12:11 | 39.96293 | -8.30810 | 28276 ft | 434 kts | 199° |
| 2026-05-07 12:11 | 39.93369 | -8.31390 | 27977 ft | 425 kts | 192° |
| 2026-05-07 12:12 | 39.90471 | -8.31782 | 27699 ft | 413 kts | 192° |
| 2026-05-07 12:12 | 39.87643 | -8.32163 | 27417 ft | 401 kts | 192° |
| 2026-05-07 12:12 | 39.84907 | -8.32555 | 27150 ft | 392 kts | 192° |
| 2026-05-07 12:12 | 39.82197 | -8.32959 | 26884 ft | 392 kts | 193° |
| 2026-05-07 12:13 | 39.79494 | -8.33728 | 26624 ft | 404 kts | 207° |
| 2026-05-07 12:13 | 39.77033 | -8.35558 | 26391 ft | 413 kts | 223° |
| 2026-05-07 12:13 | 39.74792 | -8.37941 | 26184 ft | 431 kts | 225° |
| 2026-05-07 12:13 | 39.72413 | -8.40540 | 25953 ft | 452 kts | 225° |
| 2026-05-07 12:14 | 39.69979 | -8.43140 | 25726 ft | 462 kts | 224° |
| 2026-05-07 12:14 | 39.67474 | -8.45762 | 25486 ft | 464 kts | 223° |
| 2026-05-07 12:14 | 39.64947 | -8.48383 | 25249 ft | 465 kts | 223° |
| 2026-05-07 12:14 | 39.62417 | -8.50992 | 25011 ft | 466 kts | 223° |
| 2026-05-07 12:15 | 39.59877 | -8.53609 | 24776 ft | 467 kts | 223° |
| 2026-05-07 12:15 | 39.57322 | -8.56241 | 24533 ft | 468 kts | 223° |
| 2026-05-07 12:15 | 39.54777 | -8.58865 | 24292 ft | 467 kts | 223° |
| 2026-05-07 12:15 | 39.52239 | -8.61476 | 24063 ft | 466 kts | 223° |
| 2026-05-07 12:16 | 39.49738 | -8.64049 | 23833 ft | 465 kts | 223° |
| 2026-05-07 12:16 | 39.47208 | -8.66656 | 23601 ft | 464 kts | 222° |
| 2026-05-07 12:16 | 39.44686 | -8.69246 | 23348 ft | 463 kts | 222° |
| 2026-05-07 12:16 | 39.42167 | -8.71827 | 23074 ft | 461 kts | 222° |
| 2026-05-07 12:17 | 39.39660 | -8.74394 | 22796 ft | 459 kts | 222° |
| 2026-05-07 12:17 | 39.37164 | -8.76946 | 22528 ft | 456 kts | 222° |
| 2026-05-07 12:17 | 39.34686 | -8.79483 | 22261 ft | 454 kts | 222° |
| 2026-05-07 12:17 | 39.32239 | -8.81987 | 21997 ft | 452 kts | 221° |
| 2026-05-07 12:18 | 39.29780 | -8.84500 | 21736 ft | 450 kts | 221° |
| 2026-05-07 12:18 | 39.27323 | -8.87004 | 21474 ft | 449 kts | 221° |
| 2026-05-07 12:18 | 39.24880 | -8.89493 | 21214 ft | 447 kts | 221° |
| 2026-05-07 12:18 | 39.22448 | -8.91968 | 20959 ft | 445 kts | 221° |
| 2026-05-07 12:19 | 39.20023 | -8.94438 | 20709 ft | 443 kts | 221° |
| 2026-05-07 12:19 | 39.17615 | -8.96887 | 20466 ft | 441 kts | 221° |
| 2026-05-07 12:19 | 39.15210 | -8.99331 | 20214 ft | 439 kts | 221° |
| 2026-05-07 12:19 | 39.12821 | -9.01756 | 19967 ft | 437 kts | 221° |
| 2026-05-07 12:20 | 39.10434 | -9.04173 | 19725 ft | 436 kts | 220° |
| 2026-05-07 12:20 | 39.08055 | -9.06580 | 19478 ft | 434 kts | 220° |
| 2026-05-07 12:20 | 39.05684 | -9.08977 | 18941 ft | 430 kts | 220° |
| 2026-05-07 12:20 | 39.03379 | -9.11308 | 18304 ft | 426 kts | 220° |
| 2026-05-07 12:21 | 39.01157 | -9.13549 | 17541 ft | 425 kts | 220° |
| 2026-05-07 12:21 | 38.98841 | -9.15881 | 16827 ft | 422 kts | 220° |
| 2026-05-07 12:21 | 38.96542 | -9.18197 | 16174 ft | 417 kts | 219° |
| 2026-05-07 12:21 | 38.94272 | -9.20489 | 15544 ft | 413 kts | 219° |
| 2026-05-07 12:22 | 38.92018 | -9.22763 | 14953 ft | 410 kts | 219° |
| 2026-05-07 12:22 | 38.89785 | -9.25010 | 14349 ft | 406 kts | 219° |
| 2026-05-07 12:22 | 38.87576 | -9.27233 | 13748 ft | 402 kts | 219° |
| 2026-05-07 12:22 | 38.85378 | -9.29443 | 13049 ft | 400 kts | 219° |
| 2026-05-07 12:23 | 38.83225 | -9.31602 | 12372 ft | 397 kts | 218° |
| 2026-05-07 12:23 | 38.81065 | -9.33761 | 11843 ft | 387 kts | 218° |
| 2026-05-07 12:23 | 38.78986 | -9.35846 | 11535 ft | 370 kts | 218° |
| 2026-05-07 12:23 | 38.77003 | -9.37833 | 11268 ft | 354 kts | 218° |
| 2026-05-07 12:24 | 38.75108 | -9.39726 | 11057 ft | 338 kts | 218° |
| 2026-05-07 12:24 | 38.73299 | -9.41535 | 10847 ft | 321 kts | 218° |
| 2026-05-07 12:24 | 38.71587 | -9.43246 | 10599 ft | 305 kts | 218° |
| 2026-05-07 12:24 | 38.69956 | -9.44875 | 10325 ft | 291 kts | 218° |
| 2026-05-07 12:25 | 38.68389 | -9.46439 | 9978 ft | 281 kts | 218° |
| 2026-05-07 12:25 | 38.66869 | -9.47956 | 9417 ft | 282 kts | 218° |
| 2026-05-07 12:25 | 38.65330 | -9.49492 | 8945 ft | 280 kts | 218° |
| 2026-05-07 12:25 | 38.63799 | -9.51016 | 8581 ft | 277 kts | 218° |
| 2026-05-07 12:26 | 38.62308 | -9.52500 | 8372 ft | 266 kts | 218° |
| 2026-05-07 12:26 | 38.60876 | -9.53922 | 8215 ft | 254 kts | 217° |
| 2026-05-07 12:26 | 38.59380 | -9.55002 | 8056 ft | 243 kts | 197° |
| 2026-05-07 12:26 | 38.57716 | -9.55120 | 7972 ft | 244 kts | 172° |
| 2026-05-07 12:27 | 38.56032 | -9.54664 | 7858 ft | 255 kts | 162° |
| 2026-05-07 12:27 | 38.54522 | -9.53423 | 7235 ft | 266 kts | 132° |
| 2026-05-07 12:27 | 38.53648 | -9.51361 | 6565 ft | 275 kts | 103° |
| 2026-05-07 12:27 | 38.53632 | -9.48936 | 6047 ft | 276 kts | 79° |
| 2026-05-07 12:28 | 38.54063 | -9.46554 | 5678 ft | 272 kts | 76° |
| 2026-05-07 12:28 | 38.54448 | -9.44592 | 5415 ft | 267 kts | 76° |
| 2026-05-07 12:28 | 38.54879 | -9.42321 | 5140 ft | 260 kts | 76° |
| 2026-05-07 12:28 | 38.55283 | -9.40095 | 4882 ft | 253 kts | 77° |
| 2026-05-07 12:29 | 38.55794 | -9.37980 | 4616 ft | 246 kts | 69° |
| 2026-05-07 12:29 | 38.56402 | -9.35996 | 4349 ft | 240 kts | 68° |
| 2026-05-07 12:29 | 38.57014 | -9.34039 | 4085 ft | 234 kts | 68° |
| 2026-05-07 12:29 | 38.57598 | -9.32165 | 3963 ft | 220 kts | 68° |
| 2026-05-07 12:30 | 38.58138 | -9.30425 | 3949 ft | 202 kts | 68° |
| 2026-05-07 12:30 | 38.58659 | -9.28739 | 3965 ft | 204 kts | 68° |
| 2026-05-07 12:30 | 38.59182 | -9.27048 | 3978 ft | 205 kts | 68° |
| 2026-05-07 12:30 | 38.59702 | -9.25358 | 3990 ft | 205 kts | 68° |
| 2026-05-07 12:31 | 38.60345 | -9.23757 | 3884 ft | 203 kts | 49° |
| 2026-05-07 12:31 | 38.61446 | -9.22546 | 3654 ft | 221 kts | 31° |
| 2026-05-07 12:31 | 38.62815 | -9.21642 | 3386 ft | 223 kts | 19° |
| 2026-05-07 12:31 | 38.64255 | -9.21019 | 3033 ft | 223 kts | 22° |
| 2026-05-07 12:32 | 38.65635 | -9.20260 | 2818 ft | 210 kts | 20° |
| 2026-05-07 12:32 | 38.66965 | -9.19546 | 2455 ft | 201 kts | 21° |
| 2026-05-07 12:32 | 38.68194 | -9.18908 | 2206 ft | 182 kts | 18° |
| 2026-05-07 12:32 | 38.69313 | -9.18320 | 1992 ft | 162 kts | 21° |
| 2026-05-07 12:33 | 38.71173 | -9.17307 | 1661 ft | 137 kts | 19° |
| 2026-05-07 12:33 | 38.72055 | -9.16857 | 1449 ft | 136 kts | 18° |
| 2026-05-07 12:33 | 38.72927 | -9.16379 | 1270 ft | 135 kts | 18° |
| 2026-05-07 12:34 | 38.73798 | -9.15921 | 1032 ft | 137 kts | 20° |
| 2026-05-07 12:34 | 38.74660 | -9.15445 | 843 ft | 134 kts | 18° |
| 2026-05-07 12:34 | 38.75520 | -9.14988 | 660 ft | 134 kts | 18° |
| 2026-05-07 12:34 | 38.76368 | -9.14541 | 431 ft | 132 kts | 19° |
| 2026-05-07 12:35 | 38.77194 | -9.14095 | 360 ft | 116 kts | 22° |
| 2026-05-07 12:35 | 38.77696 | -9.13828 | 358 ft | 50 kts | 23° |
| 2026-05-07 12:35 | 38.77923 | -9.13706 | 359 ft | 29 kts | 22° |
| 2026-05-07 12:35 | 38.78119 | -9.13599 | 361 ft | 32 kts | 23° |
| 2026-05-07 12:36 | 38.78302 | -9.13450 | 358 ft | 27 kts | 44° |
| 2026-05-07 12:36 | 38.78372 | -9.13334 | 360 ft | 8 kts | 90° |
| 2026-05-07 12:36 | 38.78350 | -9.13265 | 366 ft | 10 kts | 154° |
| 2026-05-07 12:36 | 38.78278 | -9.13291 | 363 ft | 12 kts | 207° |
| 2026-05-07 12:37 | 38.78192 | -9.13333 | 357 ft | 14 kts | 200° |
| 2026-05-07 12:37 | 38.78096 | -9.13384 | 361 ft | 13 kts | 205° |
| 2026-05-07 12:37 | 38.78080 | -9.13393 | 357 ft | 0 kts | 204° |
| 2026-05-07 12:38 | 38.78063 | -9.13403 | 360 ft | 5 kts | 203° |
| 2026-05-07 12:38 | 38.78014 | -9.13429 | 361 ft | 10 kts | 201° |
| 2026-05-07 12:38 | 38.77934 | -9.13469 | 359 ft | 15 kts | 202° |
| 2026-05-07 12:38 | 38.77824 | -9.13506 | 359 ft | 18 kts | 178° |
| 2026-05-07 12:39 | 38.77694 | -9.13478 | 360 ft | 20 kts | 167° |
| 2026-05-07 12:39 | 38.77556 | -9.13439 | 361 ft | 20 kts | 168° |
| 2026-05-07 12:39 | 38.77445 | -9.13410 | 356 ft | 12 kts | 168° |
| 2026-05-07 12:39 | 38.77372 | -9.13391 | 358 ft | 8 kts | 167° |
| 2026-05-07 12:40 | 38.77332 | -9.13342 | 358 ft | 5 kts | 109° |
| 2026-05-07 12:40 | 38.77331 | -9.13305 | 358 ft | 5 kts | 77° |
| 2026-05-07 12:40 | 38.77336 | -9.13262 | 359 ft | 0 kts | 95° |
| 2026-05-07 12:40 | 38.77330 | -9.13254 | 361 ft | 3 kts | 151° |
| 2026-05-07 12:41 | 38.77302 | -9.13251 | 356 ft | 5 kts | 172° |
| 2026-05-07 12:41 | 38.77262 | -9.13240 | 356 ft | 6 kts | 166° |
| 2026-05-07 12:41 | 38.77222 | -9.13228 | 361 ft | 4 kts | 168° |
| 2026-05-07 12:41 | 38.77199 | -9.13200 | 362 ft | 5 kts | 86° |
| 2026-05-07 12:42 | 38.77201 | -9.13192 | 359 ft | 3 kts | 79° |
| 2026-05-07 12:42 | 38.77204 | -9.13160 | 356 ft | 4 kts | 80° |
| 2026-05-07 12:42 | 38.77207 | -9.13140 | 364 ft | 0 kts | 78° |